Hlavní strana
METAR-TAF:

METAR-TAF

Letiště :

Billy Mitchell Airport

Hatteras, Severní Karolína, Spojené státy americké

zeměpisná šířka: 35-13-56N, zeměpisná délka: 075-37-21W, výška: 5 m

Aktuální stav počasí

Zpráva byla vytvořena před 18 minutami, v 12:51 UTC
Západní vítr 9 kt s nárazy do 17 kt
Teplota 24°C
Vlhkost vzduchu 94%
Tlak 1008 hPa
Viditelnost: 16.1 km
Oblačno až skoro zataženo ve výšce 1400 ft
Zataženo ve výšce 2400 ft

METAR: KHSE 211251Z AUTO 27009G17KT 10SM BKN014 OVC024 24/23 A2976 RMK AO2 RAE1159 SLP077 P0001 T02440228

Čas: 09:09 (13:09 UTC)


TAF: chybějící

Stav a předpovědi počasí z více než 4 000 letišť (zprávy METAR a TAF).

Červené a žluté tečky na mapě představují dostupné meteorologické stanice.

Když kurzor umístíte na tečku, zobrazí se název stanice.

Pak kliknutím zobrazíte stav a předpověď počasí.

Chcete-li změnit mapu, kliknutím na zelené tlačítko se znaménkem +mapu přiblížíte, kliknutím na zelené tlačítko se znaménkem – mapu oddálíte a kliknutím na zelené šipky přejdete na sousední mapy.


METAR-TAF: